sensor_id;sensor_type;location;lat;lon;timestamp;P1;durP1;ratioP1;P2;durP2;ratioP2
30635;SDS011;17400;52.392;9.750;2023-09-08T00:00:01;5.82;;;3.97;;
30635;SDS011;17400;52.392;9.750;2023-09-08T00:02:30;5.65;;;3.42;;
30635;SDS011;17400;52.392;9.750;2023-09-08T00:04:59;5.22;;;3.65;;
30635;SDS011;17400;52.392;9.750;2023-09-08T00:07:27;6.55;;;3.30;;
30635;SDS011;17400;52.392;9.750;2023-09-08T00:09:55;7.47;;;3.63;;
30635;SDS011;17400;52.392;9.750;2023-09-08T00:12:22;6.07;;;3.60;;
30635;SDS011;17400;52.392;9.750;2023-09-08T00:14:50;5.68;;;3.33;;
30635;SDS011;17400;52.392;9.750;2023-09-08T00:17:18;4.50;;;3.05;;
30635;SDS011;17400;52.392;9.750;2023-09-08T00:19:46;5.68;;;3.13;;
30635;SDS011;17400;52.392;9.750;2023-09-08T00:22:15;4.93;;;3.10;;
30635;SDS011;17400;52.392;9.750;2023-09-08T00:24:43;5.63;;;4.25;;
30635;SDS011;17400;52.392;9.750;2023-09-08T00:27:10;7.00;;;3.20;;
30635;SDS011;17400;52.392;9.750;2023-09-08T00:29:38;5.68;;;3.20;;
30635;SDS011;17400;52.392;9.750;2023-09-08T00:32:06;5.97;;;3.42;;
30635;SDS011;17400;52.392;9.750;2023-09-08T00:34:34;7.82;;;3.60;;
30635;SDS011;17400;52.392;9.750;2023-09-08T00:37:02;6.20;;;3.67;;
30635;SDS011;17400;52.392;9.750;2023-09-08T00:39:35;7.15;;;4.32;;
30635;SDS011;17400;52.392;9.750;2023-09-08T00:42:03;5.40;;;3.65;;
30635;SDS011;17400;52.392;9.750;2023-09-08T00:44:33;4.53;;;3.03;;
30635;SDS011;17400;52.392;9.750;2023-09-08T00:47:01;4.35;;;3.33;;
30635;SDS011;17400;52.392;9.750;2023-09-08T00:49:29;6.10;;;3.17;;
30635;SDS011;17400;52.392;9.750;2023-09-08T00:51:57;4.90;;;3.33;;
30635;SDS011;17400;52.392;9.750;2023-09-08T00:54:25;4.93;;;3.50;;
30635;SDS011;17400;52.392;9.750;2023-09-08T00:56:55;5.35;;;3.30;;
30635;SDS011;17400;52.392;9.750;2023-09-08T00:59:24;5.88;;;3.35;;
30635;SDS011;17400;52.392;9.750;2023-09-08T01:01:52;5.72;;;3.63;;
30635;SDS011;17400;52.392;9.750;2023-09-08T01:04:20;5.07;;;3.65;;
30635;SDS011;17400;52.392;9.750;2023-09-08T01:06:49;6.70;;;3.40;;
30635;SDS011;17400;52.392;9.750;2023-09-08T01:09:17;6.68;;;4.10;;
30635;SDS011;17400;52.392;9.750;2023-09-08T01:11:45;6.85;;;4.07;;
30635;SDS011;17400;52.392;9.750;2023-09-08T01:14:14;5.13;;;3.60;;
30635;SDS011;17400;52.392;9.750;2023-09-08T01:16:45;5.72;;;3.38;;
30635;SDS011;17400;52.392;9.750;2023-09-08T01:19:13;6.32;;;3.42;;
30635;SDS011;17400;52.392;9.750;2023-09-08T01:21:50;6.50;;;3.42;;
30635;SDS011;17400;52.392;9.750;2023-09-08T01:24:37;5.13;;;3.65;;
30635;SDS011;17400;52.392;9.750;2023-09-08T01:27:16;4.70;;;3.13;;
30635;SDS011;17400;52.392;9.750;2023-09-08T01:29:47;5.63;;;3.70;;
30635;SDS011;17400;52.392;9.750;2023-09-08T01:32:17;5.43;;;3.25;;
30635;SDS011;17400;52.392;9.750;2023-09-08T01:34:45;4.25;;;3.15;;
30635;SDS011;17400;52.392;9.750;2023-09-08T01:37:13;7.45;;;3.65;;
30635;SDS011;17400;52.392;9.750;2023-09-08T01:39:41;5.45;;;3.53;;
30635;SDS011;17400;52.392;9.750;2023-09-08T01:42:09;5.88;;;3.90;;
30635;SDS011;17400;52.392;9.750;2023-09-08T01:44:38;6.32;;;3.88;;
30635;SDS011;17400;52.392;9.750;2023-09-08T01:47:08;6.90;;;4.07;;
30635;SDS011;17400;52.392;9.750;2023-09-08T01:49:36;5.05;;;3.42;;
30635;SDS011;17400;52.392;9.750;2023-09-08T01:52:04;5.97;;;3.25;;
30635;SDS011;17400;52.392;9.750;2023-09-08T01:54:33;5.88;;;4.10;;
30635;SDS011;17400;52.392;9.750;2023-09-08T01:57:00;6.80;;;3.35;;
30635;SDS011;17400;52.392;9.750;2023-09-08T01:59:28;5.00;;;3.53;;
30635;SDS011;17400;52.392;9.750;2023-09-08T02:01:58;7.00;;;3.85;;
30635;SDS011;17400;52.392;9.750;2023-09-08T02:04:25;5.57;;;4.07;;
30635;SDS011;17400;52.392;9.750;2023-09-08T02:06:53;5.20;;;3.53;;
30635;SDS011;17400;52.392;9.750;2023-09-08T02:09:21;7.82;;;3.70;;
30635;SDS011;17400;52.392;9.750;2023-09-08T02:11:49;6.00;;;4.05;;
30635;SDS011;17400;52.392;9.750;2023-09-08T02:14:17;5.15;;;3.70;;
30635;SDS011;17400;52.392;9.750;2023-09-08T02:16:44;5.53;;;3.13;;
30635;SDS011;17400;52.392;9.750;2023-09-08T02:19:14;7.32;;;3.70;;
30635;SDS011;17400;52.392;9.750;2023-09-08T02:21:41;6.38;;;3.45;;
30635;SDS011;17400;52.392;9.750;2023-09-08T02:24:09;6.32;;;3.58;;
30635;SDS011;17400;52.392;9.750;2023-09-08T02:26:37;6.05;;;4.15;;
30635;SDS011;17400;52.392;9.750;2023-09-08T02:29:05;5.25;;;3.80;;
30635;SDS011;17400;52.392;9.750;2023-09-08T02:31:33;5.90;;;3.42;;
30635;SDS011;17400;52.392;9.750;2023-09-08T02:34:01;8.98;;;3.63;;
30635;SDS011;17400;52.392;9.750;2023-09-08T02:36:30;6.82;;;4.05;;
30635;SDS011;17400;52.392;9.750;2023-09-08T02:38:58;6.40;;;3.65;;
30635;SDS011;17400;52.392;9.750;2023-09-08T02:41:26;5.57;;;3.40;;
30635;SDS011;17400;52.392;9.750;2023-09-08T02:43:54;10.23;;;5.10;;
30635;SDS011;17400;52.392;9.750;2023-09-08T02:46:21;5.47;;;3.40;;
30635;SDS011;17400;52.392;9.750;2023-09-08T02:48:50;5.82;;;3.45;;
30635;SDS011;17400;52.392;9.750;2023-09-08T02:51:19;6.63;;;3.92;;
30635;SDS011;17400;52.392;9.750;2023-09-08T02:53:48;4.28;;;3.58;;
30635;SDS011;17400;52.392;9.750;2023-09-08T02:56:16;5.43;;;3.47;;
30635;SDS011;17400;52.392;9.750;2023-09-08T02:58:44;5.47;;;3.47;;
30635;SDS011;17400;52.392;9.750;2023-09-08T03:01:12;7.78;;;3.95;;
30635;SDS011;17400;52.392;9.750;2023-09-08T03:03:41;6.22;;;3.92;;
30635;SDS011;17400;52.392;9.750;2023-09-08T03:06:10;6.78;;;4.00;;
30635;SDS011;17400;52.392;9.750;2023-09-08T03:08:38;6.05;;;3.92;;
30635;SDS011;17400;52.392;9.750;2023-09-08T03:11:07;8.07;;;4.45;;
30635;SDS011;17400;52.392;9.750;2023-09-08T03:13:35;7.22;;;3.80;;
30635;SDS011;17400;52.392;9.750;2023-09-08T03:16:03;7.55;;;4.30;;
30635;SDS011;17400;52.392;9.750;2023-09-08T03:18:32;5.35;;;3.58;;
30635;SDS011;17400;52.392;9.750;2023-09-08T03:21:03;5.55;;;3.70;;
30635;SDS011;17400;52.392;9.750;2023-09-08T03:23:35;4.03;;;3.30;;
30635;SDS011;17400;52.392;9.750;2023-09-08T03:26:08;7.93;;;4.68;;
30635;SDS011;17400;52.392;9.750;2023-09-08T03:28:37;6.82;;;4.53;;
30635;SDS011;17400;52.392;9.750;2023-09-08T03:31:06;7.63;;;4.80;;
30635;SDS011;17400;52.392;9.750;2023-09-08T03:33:34;8.00;;;4.57;;
30635;SDS011;17400;52.392;9.750;2023-09-08T03:36:02;6.55;;;3.97;;
30635;SDS011;17400;52.392;9.750;2023-09-08T03:38:31;5.78;;;3.65;;
30635;SDS011;17400;52.392;9.750;2023-09-08T03:40:59;7.05;;;4.20;;
30635;SDS011;17400;52.392;9.750;2023-09-08T03:43:28;9.60;;;4.63;;
30635;SDS011;17400;52.392;9.750;2023-09-08T03:45:56;4.97;;;3.45;;
30635;SDS011;17400;52.392;9.750;2023-09-08T03:48:24;6.75;;;4.00;;
30635;SDS011;17400;52.392;9.750;2023-09-08T03:50:51;5.78;;;3.85;;
30635;SDS011;17400;52.392;9.750;2023-09-08T03:53:19;5.97;;;3.85;;
30635;SDS011;17400;52.392;9.750;2023-09-08T03:55:47;8.55;;;4.28;;
30635;SDS011;17400;52.392;9.750;2023-09-08T03:58:17;6.82;;;3.40;;
30635;SDS011;17400;52.392;9.750;2023-09-08T04:00:46;7.20;;;4.15;;
30635;SDS011;17400;52.392;9.750;2023-09-08T04:03:14;11.23;;;5.35;;
30635;SDS011;17400;52.392;9.750;2023-09-08T04:05:41;7.15;;;4.30;;
30635;SDS011;17400;52.392;9.750;2023-09-08T04:08:09;7.95;;;4.78;;
30635;SDS011;17400;52.392;9.750;2023-09-08T04:10:37;9.35;;;5.85;;
30635;SDS011;17400;52.392;9.750;2023-09-08T04:13:05;8.77;;;5.47;;
30635;SDS011;17400;52.392;9.750;2023-09-08T04:15:33;8.35;;;5.28;;
30635;SDS011;17400;52.392;9.750;2023-09-08T04:18:02;7.28;;;4.22;;
30635;SDS011;17400;52.392;9.750;2023-09-08T04:20:30;6.07;;;3.97;;
30635;SDS011;17400;52.392;9.750;2023-09-08T04:22:58;6.65;;;4.35;;
30635;SDS011;17400;52.392;9.750;2023-09-08T04:25:26;8.18;;;4.75;;
30635;SDS011;17400;52.392;9.750;2023-09-08T04:27:53;6.72;;;4.55;;
30635;SDS011;17400;52.392;9.750;2023-09-08T04:30:21;10.30;;;3.85;;
30635;SDS011;17400;52.392;9.750;2023-09-08T04:32:49;6.18;;;4.63;;
30635;SDS011;17400;52.392;9.750;2023-09-08T04:35:18;6.80;;;4.13;;
30635;SDS011;17400;52.392;9.750;2023-09-08T04:37:46;7.47;;;4.30;;
30635;SDS011;17400;52.392;9.750;2023-09-08T04:40:14;9.35;;;4.55;;
30635;SDS011;17400;52.392;9.750;2023-09-08T04:42:42;6.30;;;3.83;;
30635;SDS011;17400;52.392;9.750;2023-09-08T04:45:10;7.55;;;4.55;;
30635;SDS011;17400;52.392;9.750;2023-09-08T04:47:37;5.30;;;3.88;;
30635;SDS011;17400;52.392;9.750;2023-09-08T04:50:05;7.40;;;4.22;;
30635;SDS011;17400;52.392;9.750;2023-09-08T04:52:35;7.43;;;4.35;;
30635;SDS011;17400;52.392;9.750;2023-09-08T04:55:03;6.90;;;4.25;;
30635;SDS011;17400;52.392;9.750;2023-09-08T04:57:32;6.20;;;4.30;;
30635;SDS011;17400;52.392;9.750;2023-09-08T04:59:59;5.30;;;3.58;;
30635;SDS011;17400;52.392;9.750;2023-09-08T05:02:27;7.20;;;4.07;;
30635;SDS011;17400;52.392;9.750;2023-09-08T05:04:55;6.40;;;3.88;;
30635;SDS011;17400;52.392;9.750;2023-09-08T05:07:23;6.43;;;4.22;;
30635;SDS011;17400;52.392;9.750;2023-09-08T05:09:52;9.23;;;4.57;;
30635;SDS011;17400;52.392;9.750;2023-09-08T05:12:23;9.40;;;4.93;;
30635;SDS011;17400;52.392;9.750;2023-09-08T05:14:51;6.82;;;4.40;;
30635;SDS011;17400;52.392;9.750;2023-09-08T05:17:23;5.90;;;3.95;;
30635;SDS011;17400;52.392;9.750;2023-09-08T05:19:51;7.22;;;3.92;;
30635;SDS011;17400;52.392;9.750;2023-09-08T05:22:19;7.72;;;4.43;;
30635;SDS011;17400;52.392;9.750;2023-09-08T05:24:47;6.85;;;3.97;;
30635;SDS011;17400;52.392;9.750;2023-09-08T05:27:16;6.50;;;4.50;;
30635;SDS011;17400;52.392;9.750;2023-09-08T05:29:44;4.78;;;3.17;;
30635;SDS011;17400;52.392;9.750;2023-09-08T05:32:12;5.93;;;4.25;;
30635;SDS011;17400;52.392;9.750;2023-09-08T05:34:40;6.00;;;3.83;;
30635;SDS011;17400;52.392;9.750;2023-09-08T05:37:08;6.55;;;3.95;;
30635;SDS011;17400;52.392;9.750;2023-09-08T05:39:36;7.93;;;4.18;;
30635;SDS011;17400;52.392;9.750;2023-09-08T05:42:04;6.00;;;3.97;;
30635;SDS011;17400;52.392;9.750;2023-09-08T05:44:34;6.50;;;3.90;;
30635;SDS011;17400;52.392;9.750;2023-09-08T05:47:02;7.88;;;4.63;;
30635;SDS011;17400;52.392;9.750;2023-09-08T05:49:30;7.07;;;4.80;;
30635;SDS011;17400;52.392;9.750;2023-09-08T05:51:59;8.40;;;5.32;;
30635;SDS011;17400;52.392;9.750;2023-09-08T05:54:27;8.70;;;4.63;;
30635;SDS011;17400;52.392;9.750;2023-09-08T05:56:56;7.38;;;4.07;;
30635;SDS011;17400;52.392;9.750;2023-09-08T05:59:24;6.00;;;3.95;;
30635;SDS011;17400;52.392;9.750;2023-09-08T06:01:54;6.03;;;4.63;;
30635;SDS011;17400;52.392;9.750;2023-09-08T06:04:21;6.85;;;4.00;;
30635;SDS011;17400;52.392;9.750;2023-09-08T06:06:49;6.47;;;4.38;;
30635;SDS011;17400;52.392;9.750;2023-09-08T06:09:17;5.68;;;3.65;;
30635;SDS011;17400;52.392;9.750;2023-09-08T06:11:45;6.43;;;4.35;;
30635;SDS011;17400;52.392;9.750;2023-09-08T06:14:14;6.78;;;4.30;;
30635;SDS011;17400;52.392;9.750;2023-09-08T06:16:41;6.93;;;4.45;;
30635;SDS011;17400;52.392;9.750;2023-09-08T06:19:11;6.05;;;4.22;;
30635;SDS011;17400;52.392;9.750;2023-09-08T06:21:39;8.43;;;4.72;;
30635;SDS011;17400;52.392;9.750;2023-09-08T06:24:07;6.38;;;4.32;;
30635;SDS011;17400;52.392;9.750;2023-09-08T06:26:36;9.30;;;4.55;;
30635;SDS011;17400;52.392;9.750;2023-09-08T06:29:04;6.25;;;4.30;;
30635;SDS011;17400;52.392;9.750;2023-09-08T06:31:32;7.95;;;3.90;;
30635;SDS011;17400;52.392;9.750;2023-09-08T06:34:00;7.53;;;4.15;;
30635;SDS011;17400;52.392;9.750;2023-09-08T06:36:29;6.75;;;4.22;;
30635;SDS011;17400;52.392;9.750;2023-09-08T06:38:57;7.72;;;4.15;;
30635;SDS011;17400;52.392;9.750;2023-09-08T06:41:25;7.82;;;4.10;;
30635;SDS011;17400;52.392;9.750;2023-09-08T06:43:53;8.75;;;4.35;;
30635;SDS011;17400;52.392;9.750;2023-09-08T06:46:22;6.72;;;4.53;;
30635;SDS011;17400;52.392;9.750;2023-09-08T06:48:50;7.80;;;5.20;;
30635;SDS011;17400;52.392;9.750;2023-09-08T06:51:18;6.57;;;4.90;;
30635;SDS011;17400;52.392;9.750;2023-09-08T06:53:51;6.72;;;4.25;;
30635;SDS011;17400;52.392;9.750;2023-09-08T06:56:22;7.85;;;4.03;;
30635;SDS011;17400;52.392;9.750;2023-09-08T06:58:50;7.88;;;4.60;;
30635;SDS011;17400;52.392;9.750;2023-09-08T07:01:18;7.38;;;4.43;;
30635;SDS011;17400;52.392;9.750;2023-09-08T07:03:46;7.35;;;4.75;;
30635;SDS011;17400;52.392;9.750;2023-09-08T07:06:14;5.00;;;3.47;;
30635;SDS011;17400;52.392;9.750;2023-09-08T07:08:42;6.00;;;4.15;;
30635;SDS011;17400;52.392;9.750;2023-09-08T07:11:11;7.72;;;3.88;;
30635;SDS011;17400;52.392;9.750;2023-09-08T07:13:43;5.80;;;3.67;;
30635;SDS011;17400;52.392;9.750;2023-09-08T07:16:11;7.03;;;3.95;;
30635;SDS011;17400;52.392;9.750;2023-09-08T07:18:39;6.72;;;4.30;;
30635;SDS011;17400;52.392;9.750;2023-09-08T07:21:07;8.25;;;4.65;;
30635;SDS011;17400;52.392;9.750;2023-09-08T07:23:35;7.30;;;4.32;;
30635;SDS011;17400;52.392;9.750;2023-09-08T07:26:04;7.78;;;4.75;;
30635;SDS011;17400;52.392;9.750;2023-09-08T07:28:34;7.30;;;4.18;;
30635;SDS011;17400;52.392;9.750;2023-09-08T07:31:02;6.78;;;4.57;;
30635;SDS011;17400;52.392;9.750;2023-09-08T07:33:30;6.22;;;4.10;;
30635;SDS011;17400;52.392;9.750;2023-09-08T07:36:04;4.60;;;3.83;;
30635;SDS011;17400;52.392;9.750;2023-09-08T07:38:32;8.52;;;4.60;;
30635;SDS011;17400;52.392;9.750;2023-09-08T07:41:01;6.55;;;3.83;;
30635;SDS011;17400;52.392;9.750;2023-09-08T07:43:29;6.38;;;3.58;;
30635;SDS011;17400;52.392;9.750;2023-09-08T07:45:58;5.97;;;3.53;;
30635;SDS011;17400;52.392;9.750;2023-09-08T07:48:26;6.80;;;4.10;;
30635;SDS011;17400;52.392;9.750;2023-09-08T07:50:54;6.28;;;4.55;;
30635;SDS011;17400;52.392;9.750;2023-09-08T07:53:22;8.27;;;4.20;;
30635;SDS011;17400;52.392;9.750;2023-09-08T07:55:50;6.57;;;4.40;;
30635;SDS011;17400;52.392;9.750;2023-09-08T07:58:18;6.78;;;3.05;;
30635;SDS011;17400;52.392;9.750;2023-09-08T08:00:45;6.47;;;4.15;;
30635;SDS011;17400;52.392;9.750;2023-09-08T08:03:15;5.18;;;3.40;;
30635;SDS011;17400;52.392;9.750;2023-09-08T08:05:42;8.70;;;3.53;;
30635;SDS011;17400;52.392;9.750;2023-09-08T08:08:10;6.80;;;4.32;;
30635;SDS011;17400;52.392;9.750;2023-09-08T08:10:40;5.40;;;3.72;;
30635;SDS011;17400;52.392;9.750;2023-09-08T08:13:08;5.10;;;3.58;;
30635;SDS011;17400;52.392;9.750;2023-09-08T08:15:36;6.55;;;4.35;;
30635;SDS011;17400;52.392;9.750;2023-09-08T08:18:05;5.47;;;3.80;;
30635;SDS011;17400;52.392;9.750;2023-09-08T08:20:35;5.93;;;3.72;;
30635;SDS011;17400;52.392;9.750;2023-09-08T08:23:03;6.05;;;4.25;;
30635;SDS011;17400;52.392;9.750;2023-09-08T08:25:32;7.68;;;4.70;;
30635;SDS011;17400;52.392;9.750;2023-09-08T08:28:04;5.07;;;3.60;;
30635;SDS011;17400;52.392;9.750;2023-09-08T08:30:32;6.43;;;3.35;;
30635;SDS011;17400;52.392;9.750;2023-09-08T08:33:01;4.38;;;3.17;;
30635;SDS011;17400;52.392;9.750;2023-09-08T08:35:30;5.32;;;3.85;;
30635;SDS011;17400;52.392;9.750;2023-09-08T08:37:59;4.82;;;3.47;;
30635;SDS011;17400;52.392;9.750;2023-09-08T08:40:27;5.38;;;4.10;;
30635;SDS011;17400;52.392;9.750;2023-09-08T08:42:55;5.55;;;3.40;;
30635;SDS011;17400;52.392;9.750;2023-09-08T08:45:28;5.22;;;3.20;;
30635;SDS011;17400;52.392;9.750;2023-09-08T08:48:00;4.70;;;3.08;;
30635;SDS011;17400;52.392;9.750;2023-09-08T08:50:31;5.88;;;3.45;;
30635;SDS011;17400;52.392;9.750;2023-09-08T08:53:01;6.90;;;3.60;;
30635;SDS011;17400;52.392;9.750;2023-09-08T08:55:29;6.55;;;3.47;;
30635;SDS011;17400;52.392;9.750;2023-09-08T08:58:00;5.25;;;4.03;;
30635;SDS011;17400;52.392;9.750;2023-09-08T09:00:33;4.97;;;3.03;;
30635;SDS011;17400;52.392;9.750;2023-09-08T09:03:03;5.57;;;2.78;;
30635;SDS011;17400;52.392;9.750;2023-09-08T09:05:41;5.60;;;3.42;;
30635;SDS011;17400;52.392;9.750;2023-09-08T09:08:16;4.28;;;2.75;;
30635;SDS011;17400;52.392;9.750;2023-09-08T09:10:44;6.22;;;3.83;;
30635;SDS011;17400;52.392;9.750;2023-09-08T09:13:13;4.93;;;3.67;;
30635;SDS011;17400;52.392;9.750;2023-09-08T09:15:40;4.93;;;2.92;;
30635;SDS011;17400;52.392;9.750;2023-09-08T09:18:11;7.75;;;3.85;;
30635;SDS011;17400;52.392;9.750;2023-09-08T09:20:40;5.35;;;3.85;;
30635;SDS011;17400;52.392;9.750;2023-09-08T09:23:27;4.25;;;2.78;;
30635;SDS011;17400;52.392;9.750;2023-09-08T09:25:56;6.47;;;3.35;;
30635;SDS011;17400;52.392;9.750;2023-09-08T09:28:26;6.25;;;2.65;;
30635;SDS011;17400;52.392;9.750;2023-09-08T09:30:56;4.40;;;3.45;;
30635;SDS011;17400;52.392;9.750;2023-09-08T09:33:26;6.72;;;3.67;;
30635;SDS011;17400;52.392;9.750;2023-09-08T09:35:55;4.13;;;2.30;;
30635;SDS011;17400;52.392;9.750;2023-09-08T09:38:27;9.40;;;3.10;;
30635;SDS011;17400;52.392;9.750;2023-09-08T09:40:56;4.55;;;2.25;;
30635;SDS011;17400;52.392;9.750;2023-09-08T09:43:25;5.18;;;3.50;;
30635;SDS011;17400;52.392;9.750;2023-09-08T09:45:55;4.45;;;3.55;;
30635;SDS011;17400;52.392;9.750;2023-09-08T09:48:23;4.55;;;2.63;;
30635;SDS011;17400;52.392;9.750;2023-09-08T09:50:52;10.32;;;3.22;;
30635;SDS011;17400;52.392;9.750;2023-09-08T09:53:20;4.05;;;2.80;;
30635;SDS011;17400;52.392;9.750;2023-09-08T09:55:49;5.82;;;3.60;;
30635;SDS011;17400;52.392;9.750;2023-09-08T09:58:18;7.30;;;3.20;;
30635;SDS011;17400;52.392;9.750;2023-09-08T10:00:48;6.95;;;3.50;;
30635;SDS011;17400;52.392;9.750;2023-09-08T10:03:18;5.07;;;3.75;;
30635;SDS011;17400;52.392;9.750;2023-09-08T10:05:47;6.50;;;4.43;;
30635;SDS011;17400;52.392;9.750;2023-09-08T10:08:17;4.68;;;2.97;;
30635;SDS011;17400;52.392;9.750;2023-09-08T10:10:45;5.82;;;3.42;;
30635;SDS011;17400;52.392;9.750;2023-09-08T10:13:17;4.85;;;3.45;;
30635;SDS011;17400;52.392;9.750;2023-09-08T10:15:49;4.82;;;3.10;;
30635;SDS011;17400;52.392;9.750;2023-09-08T10:18:19;6.03;;;2.97;;
30635;SDS011;17400;52.392;9.750;2023-09-08T10:20:49;4.35;;;2.10;;
30635;SDS011;17400;52.392;9.750;2023-09-08T10:23:20;6.63;;;3.45;;
30635;SDS011;17400;52.392;9.750;2023-09-08T10:25:52;3.95;;;2.72;;
30635;SDS011;17400;52.392;9.750;2023-09-08T10:28:30;4.28;;;3.03;;
30635;SDS011;17400;52.392;9.750;2023-09-08T10:31:00;3.70;;;2.85;;
30635;SDS011;17400;52.392;9.750;2023-09-08T10:33:30;6.38;;;3.50;;
30635;SDS011;17400;52.392;9.750;2023-09-08T10:35:58;5.32;;;3.55;;
30635;SDS011;17400;52.392;9.750;2023-09-08T10:38:31;4.53;;;2.90;;
30635;SDS011;17400;52.392;9.750;2023-09-08T10:44:06;5.10;;;3.28;;
30635;SDS011;17400;52.392;9.750;2023-09-08T10:46:35;5.10;;;3.25;;
30635;SDS011;17400;52.392;9.750;2023-09-08T10:49:04;5.60;;;3.65;;
30635;SDS011;17400;52.392;9.750;2023-09-08T10:51:34;6.10;;;3.83;;
30635;SDS011;17400;52.392;9.750;2023-09-08T10:54:04;5.50;;;3.38;;
30635;SDS011;17400;52.392;9.750;2023-09-08T10:56:47;5.00;;;2.90;;
30635;SDS011;17400;52.392;9.750;2023-09-08T10:59:18;5.00;;;3.42;;
30635;SDS011;17400;52.392;9.750;2023-09-08T11:01:46;6.38;;;3.17;;
30635;SDS011;17400;52.392;9.750;2023-09-08T11:04:15;4.32;;;3.53;;
30635;SDS011;17400;52.392;9.750;2023-09-08T11:06:45;6.18;;;3.20;;
30635;SDS011;17400;52.392;9.750;2023-09-08T11:09:13;4.10;;;3.15;;
30635;SDS011;17400;52.392;9.750;2023-09-08T11:11:41;7.40;;;3.80;;
30635;SDS011;17400;52.392;9.750;2023-09-08T11:14:09;5.15;;;2.80;;
30635;SDS011;17400;52.392;9.750;2023-09-08T11:16:38;4.30;;;3.13;;
30635;SDS011;17400;52.392;9.750;2023-09-08T11:19:06;5.70;;;3.95;;
30635;SDS011;17400;52.392;9.750;2023-09-08T11:21:35;4.25;;;2.75;;
30635;SDS011;17400;52.392;9.750;2023-09-08T11:24:07;4.35;;;3.17;;
30635;SDS011;17400;52.392;9.750;2023-09-08T11:26:36;4.20;;;2.78;;
30635;SDS011;17400;52.392;9.750;2023-09-08T11:29:05;4.18;;;3.65;;
30635;SDS011;17400;52.392;9.750;2023-09-08T11:31:32;5.85;;;3.90;;
30635;SDS011;17400;52.392;9.750;2023-09-08T11:34:03;6.20;;;3.92;;
30635;SDS011;17400;52.392;9.750;2023-09-08T11:36:32;5.68;;;3.08;;
30635;SDS011;17400;52.392;9.750;2023-09-08T11:39:03;3.65;;;2.13;;
30635;SDS011;17400;52.392;9.750;2023-09-08T11:41:32;4.70;;;3.55;;
30635;SDS011;17400;52.392;9.750;2023-09-08T11:44:00;4.00;;;3.20;;
30635;SDS011;17400;52.392;9.750;2023-09-08T11:46:27;3.55;;;2.65;;
30635;SDS011;17400;52.392;9.750;2023-09-08T11:48:56;4.55;;;3.25;;
30635;SDS011;17400;52.392;9.750;2023-09-08T11:51:25;4.95;;;3.40;;
30635;SDS011;17400;52.392;9.750;2023-09-08T11:53:53;4.40;;;3.40;;
30635;SDS011;17400;52.392;9.750;2023-09-08T11:56:21;5.70;;;2.83;;
30635;SDS011;17400;52.392;9.750;2023-09-08T11:58:49;4.10;;;3.17;;
30635;SDS011;17400;52.392;9.750;2023-09-08T12:01:18;4.47;;;2.88;;
30635;SDS011;17400;52.392;9.750;2023-09-08T12:03:53;4.50;;;2.92;;
30635;SDS011;17400;52.392;9.750;2023-09-08T12:06:24;4.13;;;2.58;;
30635;SDS011;17400;52.392;9.750;2023-09-08T12:08:54;2.40;;;1.85;;
30635;SDS011;17400;52.392;9.750;2023-09-08T12:11:22;3.42;;;2.15;;
30635;SDS011;17400;52.392;9.750;2023-09-08T12:13:50;3.33;;;2.20;;
30635;SDS011;17400;52.392;9.750;2023-09-08T12:16:18;3.90;;;2.58;;
30635;SDS011;17400;52.392;9.750;2023-09-08T12:18:46;2.92;;;2.10;;
30635;SDS011;17400;52.392;9.750;2023-09-08T12:21:15;3.70;;;2.58;;
30635;SDS011;17400;52.392;9.750;2023-09-08T12:23:50;3.35;;;1.92;;
30635;SDS011;17400;52.392;9.750;2023-09-08T12:26:20;3.20;;;2.25;;
30635;SDS011;17400;52.392;9.750;2023-09-08T12:28:50;4.13;;;2.45;;
30635;SDS011;17400;52.392;9.750;2023-09-08T12:31:18;3.17;;;2.40;;
30635;SDS011;17400;52.392;9.750;2023-09-08T12:33:47;3.30;;;2.10;;
30635;SDS011;17400;52.392;9.750;2023-09-08T12:36:17;3.13;;;2.28;;
30635;SDS011;17400;52.392;9.750;2023-09-08T12:38:51;3.05;;;2.38;;
30635;SDS011;17400;52.392;9.750;2023-09-08T12:41:19;3.15;;;2.50;;
30635;SDS011;17400;52.392;9.750;2023-09-08T12:43:48;3.40;;;2.05;;
30635;SDS011;17400;52.392;9.750;2023-09-08T12:46:16;2.70;;;2.08;;
30635;SDS011;17400;52.392;9.750;2023-09-08T12:48:44;4.55;;;1.98;;
30635;SDS011;17400;52.392;9.750;2023-09-08T12:51:12;2.13;;;1.60;;
30635;SDS011;17400;52.392;9.750;2023-09-08T12:53:40;3.38;;;2.30;;
30635;SDS011;17400;52.392;9.750;2023-09-08T12:56:09;3.40;;;2.10;;
30635;SDS011;17400;52.392;9.750;2023-09-08T12:58:37;4.00;;;2.22;;
30635;SDS011;17400;52.392;9.750;2023-09-08T13:01:04;2.88;;;2.03;;
30635;SDS011;17400;52.392;9.750;2023-09-08T13:03:34;2.03;;;1.65;;
30635;SDS011;17400;52.392;9.750;2023-09-08T13:06:02;4.60;;;2.70;;
30635;SDS011;17400;52.392;9.750;2023-09-08T13:08:33;3.40;;;2.10;;
30635;SDS011;17400;52.392;9.750;2023-09-08T13:11:01;2.55;;;1.55;;
30635;SDS011;17400;52.392;9.750;2023-09-08T13:13:31;3.38;;;2.13;;
30635;SDS011;17400;52.392;9.750;2023-09-08T13:15:58;2.88;;;1.90;;
30635;SDS011;17400;52.392;9.750;2023-09-08T13:18:26;3.83;;;2.30;;
30635;SDS011;17400;52.392;9.750;2023-09-08T13:20:54;2.15;;;1.40;;
30635;SDS011;17400;52.392;9.750;2023-09-08T13:23:22;2.85;;;1.85;;
30635;SDS011;17400;52.392;9.750;2023-09-08T13:25:49;2.45;;;1.60;;
30635;SDS011;17400;52.392;9.750;2023-09-08T13:28:17;2.63;;;2.00;;
30635;SDS011;17400;52.392;9.750;2023-09-08T13:30:46;2.55;;;1.50;;
30635;SDS011;17400;52.392;9.750;2023-09-08T13:33:14;2.83;;;1.98;;
30635;SDS011;17400;52.392;9.750;2023-09-08T13:35:42;2.47;;;1.73;;
30635;SDS011;17400;52.392;9.750;2023-09-08T13:38:10;2.38;;;1.67;;
30635;SDS011;17400;52.392;9.750;2023-09-08T13:40:38;2.17;;;1.45;;
30635;SDS011;17400;52.392;9.750;2023-09-08T13:43:06;2.10;;;1.55;;
30635;SDS011;17400;52.392;9.750;2023-09-08T13:45:34;2.17;;;1.23;;
30635;SDS011;17400;52.392;9.750;2023-09-08T13:48:04;1.63;;;1.08;;
30635;SDS011;17400;52.392;9.750;2023-09-08T13:50:33;1.88;;;1.55;;
30635;SDS011;17400;52.392;9.750;2023-09-08T13:53:03;1.45;;;1.05;;
30635;SDS011;17400;52.392;9.750;2023-09-08T13:55:34;2.67;;;1.92;;
30635;SDS011;17400;52.392;9.750;2023-09-08T13:58:04;1.75;;;1.38;;
30635;SDS011;17400;52.392;9.750;2023-09-08T14:00:36;2.35;;;1.75;;
30635;SDS011;17400;52.392;9.750;2023-09-08T14:03:06;1.92;;;1.30;;
30635;SDS011;17400;52.392;9.750;2023-09-08T14:05:39;2.85;;;1.60;;
30635;SDS011;17400;52.392;9.750;2023-09-08T14:08:11;2.95;;;1.50;;
30635;SDS011;17400;52.392;9.750;2023-09-08T14:10:52;3.00;;;1.80;;
30635;SDS011;17400;52.392;9.750;2023-09-08T14:13:35;2.75;;;1.30;;
30635;SDS011;17400;52.392;9.750;2023-09-08T14:16:03;2.38;;;1.45;;
30635;SDS011;17400;52.392;9.750;2023-09-08T14:18:33;2.78;;;1.90;;
30635;SDS011;17400;52.392;9.750;2023-09-08T14:21:00;3.05;;;1.63;;
30635;SDS011;17400;52.392;9.750;2023-09-08T14:23:28;2.63;;;1.80;;
30635;SDS011;17400;52.392;9.750;2023-09-08T14:25:57;1.50;;;0.90;;
30635;SDS011;17400;52.392;9.750;2023-09-08T14:28:25;2.80;;;1.40;;
30635;SDS011;17400;52.392;9.750;2023-09-08T14:30:53;2.78;;;1.45;;
30635;SDS011;17400;52.392;9.750;2023-09-08T14:33:21;3.05;;;1.90;;
30635;SDS011;17400;52.392;9.750;2023-09-08T14:35:50;4.80;;;2.25;;
30635;SDS011;17400;52.392;9.750;2023-09-08T14:38:18;2.35;;;1.60;;
30635;SDS011;17400;52.392;9.750;2023-09-08T14:40:53;3.90;;;2.38;;
30635;SDS011;17400;52.392;9.750;2023-09-08T14:43:22;3.05;;;2.25;;
30635;SDS011;17400;52.392;9.750;2023-09-08T14:45:50;4.32;;;2.40;;
30635;SDS011;17400;52.392;9.750;2023-09-08T14:48:19;4.93;;;3.15;;
30635;SDS011;17400;52.392;9.750;2023-09-08T14:50:47;3.75;;;2.78;;
30635;SDS011;17400;52.392;9.750;2023-09-08T14:53:17;5.47;;;2.47;;
30635;SDS011;17400;52.392;9.750;2023-09-08T14:55:45;5.18;;;3.00;;
30635;SDS011;17400;52.392;9.750;2023-09-08T14:58:14;3.67;;;2.17;;
30635;SDS011;17400;52.392;9.750;2023-09-08T15:00:44;2.30;;;1.50;;